< < Back
Terminal Aerodrome Forecast


Current Version              Previous Versions:   1  2  3  4  5  6  7  8  9  

Terminal Aerodrome Forecast

398
FTUS42 KFFC 201700
TAFCSG
TAF
KCSG 201734Z 2018/2118 06012G20KT P6SM OVC035
     FM202100 06008G16KT P6SM BKN045
     FM210000 06007KT P6SM SCT045
     FM211500 29006KT P6SM SCT250=



Latest METAR

848
SAUS70 KWBC 202100 RRA
MTRCSG
METAR KCSG 202051Z 00000KT 10SM CLR 23/09 A3013 RMK AO2 SLP199 T02280089
58021


USA.gov is the U.S. government's official web portal to all federal, state and local government web resources and services.